sensor_id;sensor_type;location;lat;lon;timestamp;P1;durP1;ratioP1;P2;durP2;ratioP2
1320;SDS011;653;51.480;11.992;2024-03-06T00:01:07;20.63;;;14.90;;
1320;SDS011;653;51.480;11.992;2024-03-06T00:03:35;23.37;;;16.27;;
1320;SDS011;653;51.480;11.992;2024-03-06T00:06:03;24.13;;;16.07;;
1320;SDS011;653;51.480;11.992;2024-03-06T00:08:34;25.53;;;15.57;;
1320;SDS011;653;51.480;11.992;2024-03-06T00:11:02;19.60;;;15.77;;
1320;SDS011;653;51.480;11.992;2024-03-06T00:13:28;19.53;;;15.50;;
1320;SDS011;653;51.480;11.992;2024-03-06T00:15:56;25.50;;;16.17;;
1320;SDS011;653;51.480;11.992;2024-03-06T00:18:23;18.87;;;15.43;;
1320;SDS011;653;51.480;11.992;2024-03-06T00:20:51;22.00;;;14.97;;
1320;SDS011;653;51.480;11.992;2024-03-06T00:23:17;21.43;;;16.20;;
1320;SDS011;653;51.480;11.992;2024-03-06T00:25:47;21.63;;;16.37;;
1320;SDS011;653;51.480;11.992;2024-03-06T00:28:13;27.13;;;18.37;;
1320;SDS011;653;51.480;11.992;2024-03-06T00:30:40;23.40;;;16.07;;
1320;SDS011;653;51.480;11.992;2024-03-06T00:33:08;23.63;;;16.87;;
1320;SDS011;653;51.480;11.992;2024-03-06T00:35:36;24.13;;;16.63;;
1320;SDS011;653;51.480;11.992;2024-03-06T00:38:03;24.13;;;16.13;;
1320;SDS011;653;51.480;11.992;2024-03-06T00:40:33;23.13;;;15.43;;
1320;SDS011;653;51.480;11.992;2024-03-06T00:43:14;22.27;;;17.57;;
1320;SDS011;653;51.480;11.992;2024-03-06T00:45:41;25.03;;;17.80;;
1320;SDS011;653;51.480;11.992;2024-03-06T00:48:08;28.50;;;17.87;;
1320;SDS011;653;51.480;11.992;2024-03-06T00:50:36;26.13;;;17.63;;
1320;SDS011;653;51.480;11.992;2024-03-06T00:53:04;23.30;;;17.27;;
1320;SDS011;653;51.480;11.992;2024-03-06T00:55:35;25.47;;;17.87;;
1320;SDS011;653;51.480;11.992;2024-03-06T00:58:05;20.43;;;15.17;;
1320;SDS011;653;51.480;11.992;2024-03-06T01:00:32;20.90;;;16.97;;
1320;SDS011;653;51.480;11.992;2024-03-06T01:03:00;19.10;;;16.40;;
1320;SDS011;653;51.480;11.992;2024-03-06T01:05:28;28.70;;;17.73;;
1320;SDS011;653;51.480;11.992;2024-03-06T01:07:56;25.23;;;17.47;;
1320;SDS011;653;51.480;11.992;2024-03-06T01:10:25;23.10;;;17.37;;
1320;SDS011;653;51.480;11.992;2024-03-06T01:12:53;20.13;;;16.67;;
1320;SDS011;653;51.480;11.992;2024-03-06T01:15:25;27.93;;;17.80;;
1320;SDS011;653;51.480;11.992;2024-03-06T01:17:53;22.53;;;16.60;;
1320;SDS011;653;51.480;11.992;2024-03-06T01:20:21;21.07;;;16.63;;
1320;SDS011;653;51.480;11.992;2024-03-06T01:22:47;22.70;;;17.97;;
1320;SDS011;653;51.480;11.992;2024-03-06T01:25:16;25.03;;;16.80;;
1320;SDS011;653;51.480;11.992;2024-03-06T01:27:43;28.53;;;16.70;;
1320;SDS011;653;51.480;11.992;2024-03-06T01:30:10;21.43;;;17.87;;
1320;SDS011;653;51.480;11.992;2024-03-06T01:32:38;20.50;;;16.87;;
1320;SDS011;653;51.480;11.992;2024-03-06T01:35:07;21.73;;;15.87;;
1320;SDS011;653;51.480;11.992;2024-03-06T01:37:34;19.10;;;15.83;;
1320;SDS011;653;51.480;11.992;2024-03-06T01:40:05;21.73;;;16.43;;
1320;SDS011;653;51.480;11.992;2024-03-06T01:42:34;27.23;;;18.17;;
1320;SDS011;653;51.480;11.992;2024-03-06T01:45:03;22.30;;;16.20;;
1320;SDS011;653;51.480;11.992;2024-03-06T01:47:30;23.53;;;16.50;;
1320;SDS011;653;51.480;11.992;2024-03-06T01:50:00;20.63;;;16.87;;
1320;SDS011;653;51.480;11.992;2024-03-06T01:52:28;18.90;;;15.00;;
1320;SDS011;653;51.480;11.992;2024-03-06T01:54:56;25.00;;;16.40;;
1320;SDS011;653;51.480;11.992;2024-03-06T01:57:24;20.67;;;15.60;;
1320;SDS011;653;51.480;11.992;2024-03-06T01:59:51;20.93;;;16.30;;
1320;SDS011;653;51.480;11.992;2024-03-06T02:02:21;19.63;;;16.33;;
1320;SDS011;653;51.480;11.992;2024-03-06T02:04:48;25.00;;;16.50;;
1320;SDS011;653;51.480;11.992;2024-03-06T02:07:17;24.10;;;17.73;;
1320;SDS011;653;51.480;11.992;2024-03-06T02:09:43;25.47;;;16.77;;
1320;SDS011;653;51.480;11.992;2024-03-06T02:12:11;27.83;;;15.80;;
1320;SDS011;653;51.480;11.992;2024-03-06T02:14:38;21.43;;;16.77;;
1320;SDS011;653;51.480;11.992;2024-03-06T02:17:05;22.73;;;16.30;;
1320;SDS011;653;51.480;11.992;2024-03-06T02:19:38;20.87;;;17.40;;
1320;SDS011;653;51.480;11.992;2024-03-06T02:22:12;21.20;;;16.50;;
1320;SDS011;653;51.480;11.992;2024-03-06T02:24:44;21.23;;;16.13;;
1320;SDS011;653;51.480;11.992;2024-03-06T02:27:12;23.13;;;16.97;;
1320;SDS011;653;51.480;11.992;2024-03-06T02:29:39;23.17;;;16.57;;
1320;SDS011;653;51.480;11.992;2024-03-06T02:32:07;24.60;;;17.00;;
1320;SDS011;653;51.480;11.992;2024-03-06T02:34:37;26.50;;;18.10;;
1320;SDS011;653;51.480;11.992;2024-03-06T02:37:06;23.40;;;17.03;;
1320;SDS011;653;51.480;11.992;2024-03-06T02:39:35;21.70;;;16.80;;
1320;SDS011;653;51.480;11.992;2024-03-06T02:42:03;27.10;;;19.03;;
1320;SDS011;653;51.480;11.992;2024-03-06T02:44:34;25.60;;;18.97;;
1320;SDS011;653;51.480;11.992;2024-03-06T02:47:01;23.03;;;16.80;;
1320;SDS011;653;51.480;11.992;2024-03-06T02:49:30;22.67;;;16.27;;
1320;SDS011;653;51.480;11.992;2024-03-06T02:51:56;22.60;;;18.87;;
1320;SDS011;653;51.480;11.992;2024-03-06T02:54:26;23.77;;;17.90;;
1320;SDS011;653;51.480;11.992;2024-03-06T02:56:54;27.20;;;18.07;;
1320;SDS011;653;51.480;11.992;2024-03-06T02:59:22;25.00;;;17.70;;
1320;SDS011;653;51.480;11.992;2024-03-06T03:01:50;20.90;;;16.50;;
1320;SDS011;653;51.480;11.992;2024-03-06T03:04:18;22.03;;;17.10;;
1320;SDS011;653;51.480;11.992;2024-03-06T03:06:44;23.27;;;19.00;;
1320;SDS011;653;51.480;11.992;2024-03-06T03:09:12;26.77;;;18.70;;
1320;SDS011;653;51.480;11.992;2024-03-06T03:11:38;30.47;;;19.07;;
1320;SDS011;653;51.480;11.992;2024-03-06T03:14:13;27.37;;;18.47;;
1320;SDS011;653;51.480;11.992;2024-03-06T03:16:40;30.23;;;19.30;;
1320;SDS011;653;51.480;11.992;2024-03-06T03:19:08;32.53;;;18.93;;
1320;SDS011;653;51.480;11.992;2024-03-06T03:21:36;29.80;;;20.77;;
1320;SDS011;653;51.480;11.992;2024-03-06T03:24:04;29.47;;;21.67;;
1320;SDS011;653;51.480;11.992;2024-03-06T03:26:32;29.50;;;19.47;;
1320;SDS011;653;51.480;11.992;2024-03-06T03:28:59;34.90;;;21.33;;
1320;SDS011;653;51.480;11.992;2024-03-06T03:31:28;37.27;;;21.80;;
1320;SDS011;653;51.480;11.992;2024-03-06T03:33:59;29.83;;;20.50;;
1320;SDS011;653;51.480;11.992;2024-03-06T03:36:27;27.90;;;21.10;;
1320;SDS011;653;51.480;11.992;2024-03-06T03:38:54;27.83;;;19.80;;
1320;SDS011;653;51.480;11.992;2024-03-06T03:41:25;31.00;;;22.43;;
1320;SDS011;653;51.480;11.992;2024-03-06T03:43:53;36.70;;;21.70;;
1320;SDS011;653;51.480;11.992;2024-03-06T03:46:21;28.17;;;20.83;;
1320;SDS011;653;51.480;11.992;2024-03-06T03:48:48;27.47;;;19.50;;
1320;SDS011;653;51.480;11.992;2024-03-06T03:51:16;30.20;;;22.00;;
1320;SDS011;653;51.480;11.992;2024-03-06T03:53:44;30.43;;;19.50;;
1320;SDS011;653;51.480;11.992;2024-03-06T03:56:16;29.40;;;21.57;;
1320;SDS011;653;51.480;11.992;2024-03-06T03:58:44;27.20;;;19.07;;
1320;SDS011;653;51.480;11.992;2024-03-06T04:01:12;30.97;;;20.27;;
1320;SDS011;653;51.480;11.992;2024-03-06T04:03:38;26.97;;;18.67;;
1320;SDS011;653;51.480;11.992;2024-03-06T04:06:07;27.27;;;18.27;;
1320;SDS011;653;51.480;11.992;2024-03-06T04:08:33;24.33;;;17.70;;
1320;SDS011;653;51.480;11.992;2024-03-06T04:11:01;25.27;;;19.60;;
1320;SDS011;653;51.480;11.992;2024-03-06T04:13:29;22.67;;;17.40;;
1320;SDS011;653;51.480;11.992;2024-03-06T04:15:56;23.13;;;18.23;;
1320;SDS011;653;51.480;11.992;2024-03-06T04:18:23;24.43;;;18.50;;
1320;SDS011;653;51.480;11.992;2024-03-06T04:20:49;25.17;;;18.33;;
1320;SDS011;653;51.480;11.992;2024-03-06T04:23:17;26.03;;;18.57;;
1320;SDS011;653;51.480;11.992;2024-03-06T04:25:43;28.23;;;19.90;;
1320;SDS011;653;51.480;11.992;2024-03-06T04:28:11;27.47;;;18.90;;
1320;SDS011;653;51.480;11.992;2024-03-06T04:30:39;27.93;;;19.07;;
1320;SDS011;653;51.480;11.992;2024-03-06T04:33:06;25.50;;;18.23;;
1320;SDS011;653;51.480;11.992;2024-03-06T04:35:33;28.37;;;20.10;;
1320;SDS011;653;51.480;11.992;2024-03-06T04:38:01;30.83;;;19.50;;
1320;SDS011;653;51.480;11.992;2024-03-06T04:40:30;29.80;;;19.13;;
1320;SDS011;653;51.480;11.992;2024-03-06T04:43:00;29.90;;;19.67;;
1320;SDS011;653;51.480;11.992;2024-03-06T04:45:28;27.93;;;21.23;;
1320;SDS011;653;51.480;11.992;2024-03-06T04:47:55;29.50;;;20.17;;
1320;SDS011;653;51.480;11.992;2024-03-06T04:50:22;30.80;;;20.90;;
1320;SDS011;653;51.480;11.992;2024-03-06T04:52:50;32.20;;;21.37;;
1320;SDS011;653;51.480;11.992;2024-03-06T04:55:20;31.87;;;20.40;;
1320;SDS011;653;51.480;11.992;2024-03-06T04:57:51;29.90;;;20.43;;
1320;SDS011;653;51.480;11.992;2024-03-06T05:00:19;29.63;;;19.03;;
1320;SDS011;653;51.480;11.992;2024-03-06T05:02:45;26.60;;;20.70;;
1320;SDS011;653;51.480;11.992;2024-03-06T05:05:15;31.33;;;20.67;;
1320;SDS011;653;51.480;11.992;2024-03-06T05:07:44;26.07;;;20.23;;
1320;SDS011;653;51.480;11.992;2024-03-06T05:10:12;31.37;;;20.53;;
1320;SDS011;653;51.480;11.992;2024-03-06T05:12:38;28.43;;;20.10;;
1320;SDS011;653;51.480;11.992;2024-03-06T05:15:07;31.23;;;21.87;;
1320;SDS011;653;51.480;11.992;2024-03-06T05:17:34;30.60;;;19.80;;
1320;SDS011;653;51.480;11.992;2024-03-06T05:20:01;33.13;;;20.77;;
1320;SDS011;653;51.480;11.992;2024-03-06T05:22:30;33.03;;;21.80;;
1320;SDS011;653;51.480;11.992;2024-03-06T05:24:57;35.07;;;22.23;;
1320;SDS011;653;51.480;11.992;2024-03-06T05:27:24;33.07;;;23.03;;
1320;SDS011;653;51.480;11.992;2024-03-06T05:29:54;29.23;;;20.60;;
1320;SDS011;653;51.480;11.992;2024-03-06T05:32:27;31.10;;;21.17;;
1320;SDS011;653;51.480;11.992;2024-03-06T05:34:54;32.77;;;21.67;;
1320;SDS011;653;51.480;11.992;2024-03-06T05:37:24;29.00;;;22.33;;
1320;SDS011;653;51.480;11.992;2024-03-06T05:39:50;28.90;;;19.80;;
1320;SDS011;653;51.480;11.992;2024-03-06T05:42:18;32.23;;;21.33;;
1320;SDS011;653;51.480;11.992;2024-03-06T05:44:47;34.70;;;22.40;;
1320;SDS011;653;51.480;11.992;2024-03-06T05:47:17;31.57;;;20.57;;
1320;SDS011;653;51.480;11.992;2024-03-06T05:49:44;32.67;;;23.83;;
1320;SDS011;653;51.480;11.992;2024-03-06T05:52:14;31.70;;;20.83;;
1320;SDS011;653;51.480;11.992;2024-03-06T05:54:40;34.17;;;23.57;;
1320;SDS011;653;51.480;11.992;2024-03-06T05:57:08;32.67;;;22.00;;
1320;SDS011;653;51.480;11.992;2024-03-06T05:59:35;38.30;;;22.73;;
1320;SDS011;653;51.480;11.992;2024-03-06T06:02:06;32.00;;;21.87;;
1320;SDS011;653;51.480;11.992;2024-03-06T06:04:34;37.03;;;23.13;;
1320;SDS011;653;51.480;11.992;2024-03-06T06:07:03;42.50;;;25.40;;
1320;SDS011;653;51.480;11.992;2024-03-06T06:09:30;37.37;;;23.60;;
1320;SDS011;653;51.480;11.992;2024-03-06T06:11:59;35.00;;;23.63;;
1320;SDS011;653;51.480;11.992;2024-03-06T06:14:26;34.27;;;23.83;;
1320;SDS011;653;51.480;11.992;2024-03-06T06:16:56;33.73;;;24.13;;
1320;SDS011;653;51.480;11.992;2024-03-06T06:19:23;33.23;;;22.70;;
1320;SDS011;653;51.480;11.992;2024-03-06T06:21:51;32.47;;;22.63;;
1320;SDS011;653;51.480;11.992;2024-03-06T06:24:22;34.97;;;23.67;;
1320;SDS011;653;51.480;11.992;2024-03-06T06:26:51;34.23;;;24.17;;
1320;SDS011;653;51.480;11.992;2024-03-06T06:29:19;35.93;;;24.00;;
1320;SDS011;653;51.480;11.992;2024-03-06T06:31:46;40.40;;;23.33;;
1320;SDS011;653;51.480;11.992;2024-03-06T06:34:13;33.93;;;23.50;;
1320;SDS011;653;51.480;11.992;2024-03-06T06:36:44;38.30;;;24.80;;
1320;SDS011;653;51.480;11.992;2024-03-06T06:39:12;37.13;;;21.87;;
1320;SDS011;653;51.480;11.992;2024-03-06T06:41:39;34.03;;;24.47;;
1320;SDS011;653;51.480;11.992;2024-03-06T06:44:07;36.63;;;22.90;;
1320;SDS011;653;51.480;11.992;2024-03-06T06:46:34;38.27;;;23.47;;
1320;SDS011;653;51.480;11.992;2024-03-06T06:49:02;38.40;;;25.30;;
1320;SDS011;653;51.480;11.992;2024-03-06T06:51:30;35.80;;;22.27;;
1320;SDS011;653;51.480;11.992;2024-03-06T06:53:56;34.47;;;23.47;;
1320;SDS011;653;51.480;11.992;2024-03-06T06:56:23;34.90;;;25.30;;
1320;SDS011;653;51.480;11.992;2024-03-06T06:58:53;40.80;;;25.40;;
1320;SDS011;653;51.480;11.992;2024-03-06T07:01:24;33.20;;;23.20;;
1320;SDS011;653;51.480;11.992;2024-03-06T07:03:52;38.83;;;25.00;;
1320;SDS011;653;51.480;11.992;2024-03-06T07:06:22;34.83;;;23.50;;
1320;SDS011;653;51.480;11.992;2024-03-06T07:08:53;42.53;;;25.40;;
1320;SDS011;653;51.480;11.992;2024-03-06T07:11:22;36.60;;;24.87;;
1320;SDS011;653;51.480;11.992;2024-03-06T07:13:51;38.10;;;23.90;;
1320;SDS011;653;51.480;11.992;2024-03-06T07:16:20;36.80;;;25.27;;
1320;SDS011;653;51.480;11.992;2024-03-06T07:18:48;36.63;;;24.23;;
1320;SDS011;653;51.480;11.992;2024-03-06T07:21:14;31.53;;;23.93;;
1320;SDS011;653;51.480;11.992;2024-03-06T07:23:41;37.23;;;25.17;;
1320;SDS011;653;51.480;11.992;2024-03-06T07:26:09;35.30;;;25.17;;
1320;SDS011;653;51.480;11.992;2024-03-06T07:28:36;32.90;;;23.53;;
1320;SDS011;653;51.480;11.992;2024-03-06T07:31:04;40.27;;;26.00;;
1320;SDS011;653;51.480;11.992;2024-03-06T07:33:33;37.27;;;24.37;;
1320;SDS011;653;51.480;11.992;2024-03-06T07:36:04;37.60;;;26.07;;
1320;SDS011;653;51.480;11.992;2024-03-06T07:38:33;34.70;;;25.70;;
1320;SDS011;653;51.480;11.992;2024-03-06T07:41:00;38.47;;;27.47;;
1320;SDS011;653;51.480;11.992;2024-03-06T07:43:27;37.07;;;27.20;;
1320;SDS011;653;51.480;11.992;2024-03-06T07:45:54;35.97;;;24.80;;
1320;SDS011;653;51.480;11.992;2024-03-06T07:48:25;40.30;;;27.10;;
1320;SDS011;653;51.480;11.992;2024-03-06T07:50:53;38.30;;;26.67;;
1320;SDS011;653;51.480;11.992;2024-03-06T07:53:20;39.70;;;25.60;;
1320;SDS011;653;51.480;11.992;2024-03-06T07:55:47;41.60;;;28.00;;
1320;SDS011;653;51.480;11.992;2024-03-06T07:58:14;39.23;;;27.10;;
1320;SDS011;653;51.480;11.992;2024-03-06T08:00:41;46.60;;;28.20;;
1320;SDS011;653;51.480;11.992;2024-03-06T08:03:09;42.30;;;27.37;;
1320;SDS011;653;51.480;11.992;2024-03-06T08:05:38;40.37;;;26.80;;
1320;SDS011;653;51.480;11.992;2024-03-06T08:08:10;38.40;;;26.60;;
1320;SDS011;653;51.480;11.992;2024-03-06T08:10:38;38.20;;;26.10;;
1320;SDS011;653;51.480;11.992;2024-03-06T08:13:12;45.20;;;27.70;;
1320;SDS011;653;51.480;11.992;2024-03-06T08:15:47;40.53;;;25.90;;
1320;SDS011;653;51.480;11.992;2024-03-06T08:18:23;34.83;;;25.50;;
1320;SDS011;653;51.480;11.992;2024-03-06T08:20:53;43.43;;;29.37;;
1320;SDS011;653;51.480;11.992;2024-03-06T08:23:28;37.37;;;27.10;;
1320;SDS011;653;51.480;11.992;2024-03-06T08:26:06;42.83;;;28.00;;
1320;SDS011;653;51.480;11.992;2024-03-06T08:28:33;41.87;;;29.10;;
1320;SDS011;653;51.480;11.992;2024-03-06T08:31:06;40.10;;;26.00;;
1320;SDS011;653;51.480;11.992;2024-03-06T08:33:55;41.60;;;28.73;;
1320;SDS011;653;51.480;11.992;2024-03-06T08:36:24;42.70;;;28.43;;
1320;SDS011;653;51.480;11.992;2024-03-06T08:38:52;39.67;;;28.17;;
1320;SDS011;653;51.480;11.992;2024-03-06T08:41:18;36.80;;;27.40;;
1320;SDS011;653;51.480;11.992;2024-03-06T08:43:47;45.63;;;29.33;;
1320;SDS011;653;51.480;11.992;2024-03-06T08:46:14;37.97;;;26.07;;
1320;SDS011;653;51.480;11.992;2024-03-06T08:48:42;40.77;;;27.73;;
1320;SDS011;653;51.480;11.992;2024-03-06T08:51:11;42.43;;;28.40;;
1320;SDS011;653;51.480;11.992;2024-03-06T08:53:39;43.80;;;28.57;;
1320;SDS011;653;51.480;11.992;2024-03-06T08:56:07;41.63;;;27.63;;
1320;SDS011;653;51.480;11.992;2024-03-06T08:58:33;39.40;;;30.13;;
1320;SDS011;653;51.480;11.992;2024-03-06T09:01:00;39.10;;;30.33;;
1320;SDS011;653;51.480;11.992;2024-03-06T09:03:31;41.23;;;31.73;;
1320;SDS011;653;51.480;11.992;2024-03-06T09:05:59;38.57;;;28.53;;
1320;SDS011;653;51.480;11.992;2024-03-06T09:08:27;43.47;;;30.10;;
1320;SDS011;653;51.480;11.992;2024-03-06T09:10:54;43.73;;;31.60;;
1320;SDS011;653;51.480;11.992;2024-03-06T09:13:25;52.87;;;32.63;;
1320;SDS011;653;51.480;11.992;2024-03-06T09:15:53;39.53;;;29.80;;
1320;SDS011;653;51.480;11.992;2024-03-06T09:18:20;46.73;;;30.77;;
1320;SDS011;653;51.480;11.992;2024-03-06T09:20:48;40.90;;;29.57;;
1320;SDS011;653;51.480;11.992;2024-03-06T09:23:17;46.27;;;31.43;;
1320;SDS011;653;51.480;11.992;2024-03-06T09:25:44;41.17;;;30.70;;
1320;SDS011;653;51.480;11.992;2024-03-06T09:28:12;44.23;;;31.47;;
1320;SDS011;653;51.480;11.992;2024-03-06T09:30:39;51.77;;;34.60;;
1320;SDS011;653;51.480;11.992;2024-03-06T09:33:08;53.53;;;36.20;;
1320;SDS011;653;51.480;11.992;2024-03-06T09:35:35;50.53;;;37.50;;
1320;SDS011;653;51.480;11.992;2024-03-06T09:38:03;43.70;;;30.93;;
1320;SDS011;653;51.480;11.992;2024-03-06T09:40:31;46.20;;;31.23;;
1320;SDS011;653;51.480;11.992;2024-03-06T09:42:58;44.77;;;30.37;;
1320;SDS011;653;51.480;11.992;2024-03-06T09:45:24;44.13;;;31.83;;
1320;SDS011;653;51.480;11.992;2024-03-06T09:47:53;46.67;;;34.23;;
1320;SDS011;653;51.480;11.992;2024-03-06T09:50:22;52.93;;;36.97;;
1320;SDS011;653;51.480;11.992;2024-03-06T09:52:50;49.77;;;34.13;;
1320;SDS011;653;51.480;11.992;2024-03-06T09:55:21;42.43;;;31.80;;
1320;SDS011;653;51.480;11.992;2024-03-06T09:57:47;47.53;;;31.60;;
1320;SDS011;653;51.480;11.992;2024-03-06T10:00:16;48.00;;;32.70;;
1320;SDS011;653;51.480;11.992;2024-03-06T10:02:48;42.27;;;32.63;;
1320;SDS011;653;51.480;11.992;2024-03-06T10:05:26;48.10;;;33.07;;
1320;SDS011;653;51.480;11.992;2024-03-06T10:07:57;41.57;;;31.53;;
1320;SDS011;653;51.480;11.992;2024-03-06T10:10:25;47.03;;;33.47;;
1320;SDS011;653;51.480;11.992;2024-03-06T10:12:51;44.77;;;31.60;;
1320;SDS011;653;51.480;11.992;2024-03-06T10:15:23;41.73;;;31.73;;
1320;SDS011;653;51.480;11.992;2024-03-06T10:17:51;41.77;;;31.67;;
1320;SDS011;653;51.480;11.992;2024-03-06T10:20:22;42.10;;;30.30;;
1320;SDS011;653;51.480;11.992;2024-03-06T10:22:50;49.70;;;34.17;;
1320;SDS011;653;51.480;11.992;2024-03-06T10:25:19;48.57;;;32.87;;
1320;SDS011;653;51.480;11.992;2024-03-06T10:27:46;49.10;;;31.50;;
1320;SDS011;653;51.480;11.992;2024-03-06T10:30:14;45.70;;;33.83;;
1320;SDS011;653;51.480;11.992;2024-03-06T10:32:43;52.70;;;34.67;;
1320;SDS011;653;51.480;11.992;2024-03-06T10:35:19;49.13;;;32.40;;
1320;SDS011;653;51.480;11.992;2024-03-06T10:37:47;51.17;;;34.60;;
1320;SDS011;653;51.480;11.992;2024-03-06T10:40:15;53.77;;;36.23;;
1320;SDS011;653;51.480;11.992;2024-03-06T10:42:45;48.83;;;34.63;;
1320;SDS011;653;51.480;11.992;2024-03-06T10:45:13;43.70;;;33.33;;
1320;SDS011;653;51.480;11.992;2024-03-06T10:47:40;49.73;;;33.33;;
1320;SDS011;653;51.480;11.992;2024-03-06T10:50:08;40.47;;;30.33;;
1320;SDS011;653;51.480;11.992;2024-03-06T10:52:38;40.10;;;29.87;;
1320;SDS011;653;51.480;11.992;2024-03-06T10:55:07;39.43;;;29.60;;
1320;SDS011;653;51.480;11.992;2024-03-06T10:57:35;40.10;;;27.80;;
1320;SDS011;653;51.480;11.992;2024-03-06T11:00:04;44.73;;;31.00;;
1320;SDS011;653;51.480;11.992;2024-03-06T11:02:33;42.10;;;29.60;;
1320;SDS011;653;51.480;11.992;2024-03-06T11:05:02;40.40;;;28.77;;
1320;SDS011;653;51.480;11.992;2024-03-06T11:07:32;39.17;;;30.40;;
1320;SDS011;653;51.480;11.992;2024-03-06T11:10:00;41.13;;;30.00;;
1320;SDS011;653;51.480;11.992;2024-03-06T11:12:34;43.13;;;29.97;;
1320;SDS011;653;51.480;11.992;2024-03-06T11:15:08;43.03;;;31.37;;
1320;SDS011;653;51.480;11.992;2024-03-06T11:17:37;36.27;;;27.07;;
1320;SDS011;653;51.480;11.992;2024-03-06T11:20:17;40.90;;;29.80;;
1320;SDS011;653;51.480;11.992;2024-03-06T11:23:02;39.03;;;28.63;;
1320;SDS011;653;51.480;11.992;2024-03-06T11:28:26;34.67;;;27.03;;
1320;SDS011;653;51.480;11.992;2024-03-06T11:30:55;39.97;;;29.20;;
1320;SDS011;653;51.480;11.992;2024-03-06T11:33:23;40.67;;;29.33;;
1320;SDS011;653;51.480;11.992;2024-03-06T11:38:37;36.00;;;27.07;;
1320;SDS011;653;51.480;11.992;2024-03-06T11:41:04;32.37;;;27.30;;
1320;SDS011;653;51.480;11.992;2024-03-06T11:43:41;38.10;;;29.90;;
1320;SDS011;653;51.480;11.992;2024-03-06T11:46:09;38.07;;;28.27;;
1320;SDS011;653;51.480;11.992;2024-03-06T11:48:36;35.93;;;25.23;;
1320;SDS011;653;51.480;11.992;2024-03-06T11:51:04;39.00;;;25.37;;
1320;SDS011;653;51.480;11.992;2024-03-06T11:53:30;41.70;;;26.10;;
1320;SDS011;653;51.480;11.992;2024-03-06T11:56:01;34.70;;;26.77;;
1320;SDS011;653;51.480;11.992;2024-03-06T11:58:29;34.43;;;26.60;;
1320;SDS011;653;51.480;11.992;2024-03-06T12:00:58;34.73;;;26.13;;
1320;SDS011;653;51.480;11.992;2024-03-06T12:03:27;36.70;;;26.07;;
1320;SDS011;653;51.480;11.992;2024-03-06T12:05:55;41.37;;;27.50;;
1320;SDS011;653;51.480;11.992;2024-03-06T12:08:22;38.37;;;28.60;;
1320;SDS011;653;51.480;11.992;2024-03-06T12:10:49;34.37;;;26.17;;
1320;SDS011;653;51.480;11.992;2024-03-06T12:13:21;35.70;;;27.20;;
1320;SDS011;653;51.480;11.992;2024-03-06T12:15:48;37.03;;;27.50;;
1320;SDS011;653;51.480;11.992;2024-03-06T12:18:18;39.03;;;29.10;;
1320;SDS011;653;51.480;11.992;2024-03-06T12:20:44;36.67;;;27.40;;
1320;SDS011;653;51.480;11.992;2024-03-06T12:23:18;36.37;;;26.90;;
1320;SDS011;653;51.480;11.992;2024-03-06T12:25:45;34.27;;;26.00;;
1320;SDS011;653;51.480;11.992;2024-03-06T12:28:12;34.37;;;28.13;;
1320;SDS011;653;51.480;11.992;2024-03-06T12:30:40;35.23;;;28.57;;
1320;SDS011;653;51.480;11.992;2024-03-06T12:33:08;36.47;;;31.10;;
1320;SDS011;653;51.480;11.992;2024-03-06T12:35:38;43.27;;;32.07;;
1320;SDS011;653;51.480;11.992;2024-03-06T12:38:11;42.83;;;32.60;;
1320;SDS011;653;51.480;11.992;2024-03-06T12:40:38;39.43;;;28.90;;
1320;SDS011;653;51.480;11.992;2024-03-06T12:43:06;33.43;;;27.17;;
1320;SDS011;653;51.480;11.992;2024-03-06T12:45:34;32.03;;;25.97;;
1320;SDS011;653;51.480;11.992;2024-03-06T12:48:02;35.07;;;26.83;;
1320;SDS011;653;51.480;11.992;2024-03-06T12:50:31;35.53;;;26.20;;
1320;SDS011;653;51.480;11.992;2024-03-06T12:53:04;31.90;;;24.60;;
1320;SDS011;653;51.480;11.992;2024-03-06T12:55:31;29.83;;;23.33;;
1320;SDS011;653;51.480;11.992;2024-03-06T12:57:59;29.27;;;24.27;;
1320;SDS011;653;51.480;11.992;2024-03-06T13:00:29;27.37;;;22.40;;
1320;SDS011;653;51.480;11.992;2024-03-06T13:02:56;27.47;;;21.43;;
1320;SDS011;653;51.480;11.992;2024-03-06T13:05:24;26.27;;;21.80;;
1320;SDS011;653;51.480;11.992;2024-03-06T13:07:50;26.07;;;20.73;;
1320;SDS011;653;51.480;11.992;2024-03-06T13:10:19;24.90;;;19.03;;
1320;SDS011;653;51.480;11.992;2024-03-06T13:12:47;27.10;;;20.93;;
1320;SDS011;653;51.480;11.992;2024-03-06T13:15:15;24.67;;;19.70;;
1320;SDS011;653;51.480;11.992;2024-03-06T13:17:41;24.10;;;19.03;;
1320;SDS011;653;51.480;11.992;2024-03-06T13:20:09;23.47;;;20.43;;
1320;SDS011;653;51.480;11.992;2024-03-06T13:22:37;22.93;;;18.27;;
1320;SDS011;653;51.480;11.992;2024-03-06T13:25:06;23.87;;;18.73;;
1320;SDS011;653;51.480;11.992;2024-03-06T13:27:35;19.87;;;17.30;;
1320;SDS011;653;51.480;11.992;2024-03-06T13:30:05;25.93;;;19.20;;
1320;SDS011;653;51.480;11.992;2024-03-06T13:32:33;24.87;;;20.00;;
1320;SDS011;653;51.480;11.992;2024-03-06T13:35:01;20.83;;;18.63;;
1320;SDS011;653;51.480;11.992;2024-03-06T13:37:30;24.47;;;19.97;;
1320;SDS011;653;51.480;11.992;2024-03-06T13:39:58;22.40;;;20.07;;
1320;SDS011;653;51.480;11.992;2024-03-06T13:42:26;21.37;;;18.30;;
1320;SDS011;653;51.480;11.992;2024-03-06T13:44:55;25.27;;;20.40;;
1320;SDS011;653;51.480;11.992;2024-03-06T13:47:23;23.13;;;19.67;;
1320;SDS011;653;51.480;11.992;2024-03-06T13:49:52;26.13;;;19.30;;
1320;SDS011;653;51.480;11.992;2024-03-06T13:52:20;21.90;;;19.43;;
1320;SDS011;653;51.480;11.992;2024-03-06T13:54:49;22.80;;;19.23;;
1320;SDS011;653;51.480;11.992;2024-03-06T13:57:17;22.80;;;20.40;;
1320;SDS011;653;51.480;11.992;2024-03-06T13:59:43;18.93;;;16.90;;
1320;SDS011;653;51.480;11.992;2024-03-06T14:02:12;21.10;;;18.50;;
1320;SDS011;653;51.480;11.992;2024-03-06T14:04:38;19.20;;;17.10;;
1320;SDS011;653;51.480;11.992;2024-03-06T14:07:06;20.90;;;18.70;;
1320;SDS011;653;51.480;11.992;2024-03-06T14:09:34;19.87;;;17.47;;
1320;SDS011;653;51.480;11.992;2024-03-06T14:12:02;20.00;;;17.27;;
1320;SDS011;653;51.480;11.992;2024-03-06T14:14:28;19.73;;;16.07;;
1320;SDS011;653;51.480;11.992;2024-03-06T14:16:56;18.20;;;16.17;;
1320;SDS011;653;51.480;11.992;2024-03-06T14:19:25;19.13;;;15.93;;
1320;SDS011;653;51.480;11.992;2024-03-06T14:21:53;16.20;;;14.57;;
1320;SDS011;653;51.480;11.992;2024-03-06T14:24:21;17.47;;;15.77;;
1320;SDS011;653;51.480;11.992;2024-03-06T14:26:47;16.83;;;15.00;;
1320;SDS011;653;51.480;11.992;2024-03-06T14:29:15;16.10;;;14.40;;
1320;SDS011;653;51.480;11.992;2024-03-06T14:31:42;15.53;;;14.07;;
1320;SDS011;653;51.480;11.992;2024-03-06T14:34:09;18.73;;;15.00;;
1320;SDS011;653;51.480;11.992;2024-03-06T14:36:38;16.27;;;14.70;;
1320;SDS011;653;51.480;11.992;2024-03-06T14:39:07;28.03;;;15.70;;
1320;SDS011;653;51.480;11.992;2024-03-06T14:41:37;19.03;;;14.70;;
1320;SDS011;653;51.480;11.992;2024-03-06T14:44:04;15.70;;;14.10;;
1320;SDS011;653;51.480;11.992;2024-03-06T14:46:31;15.70;;;14.00;;
1320;SDS011;653;51.480;11.992;2024-03-06T14:48:59;16.43;;;14.93;;
1320;SDS011;653;51.480;11.992;2024-03-06T14:51:29;15.17;;;13.67;;
1320;SDS011;653;51.480;11.992;2024-03-06T14:53:58;15.67;;;14.07;;
1320;SDS011;653;51.480;11.992;2024-03-06T14:56:24;15.63;;;14.03;;
1320;SDS011;653;51.480;11.992;2024-03-06T14:58:52;13.80;;;12.40;;
1320;SDS011;653;51.480;11.992;2024-03-06T15:01:19;17.00;;;12.90;;